Time;durP1;ratioP1;P1;durP2;ratioP2;P2;SDS_P1;SDS_P2;PMS_P1;PMS_P2;Temp;Humidity;BMP_temperature;BMP_pressure;BME280_temperature;BME280_humidity;BME280_pressure;Samples;Min_cycle;Max_cycle;Signal;HPM_P1;HPM_P2
2023/05/28 00:02:09;;;;;;;;;;;15.40;99.90;;;;;;5058547;28;19999;-71
2023/05/28 00:04:34;;;;;;;;;;;15.30;99.90;;;;;;5060689;28;19913;-71
2023/05/28 00:07:00;;;;;;;;;;;15.30;99.90;;;;;;5062539;28;20299;-72
2023/05/28 00:09:26;;;;;;;;;;;15.30;99.90;;;;;;5071400;28;19916;-72
2023/05/28 00:11:51;;;;;;;;;;;15.30;99.90;;;;;;5062545;28;19915;-71
2023/05/28 00:14:17;;;;;;;;;;;15.20;99.90;;;;;;5060324;28;19964;-72
2023/05/28 00:16:44;;;;;;;;;;;15.20;99.90;;;;;;5062426;28;19913;-71
2023/05/28 00:19:10;;;;;;;;;;;15.20;99.90;;;;;;5062032;28;19931;-72
2023/05/28 00:21:36;;;;;;;;;;;15.20;99.90;;;;;;5063192;28;19916;-71
2023/05/28 00:24:02;;;;;;;;;;;15.20;99.90;;;;;;5066474;28;19920;-71
2023/05/28 00:26:28;;;;;;;;;;;15.10;99.90;;;;;;5062493;28;19913;-72
2023/05/28 00:28:55;;;;;;;;;;;15.10;99.90;;;;;;5081909;28;20792;-72
2023/05/28 00:31:20;;;;;;;;;;;15.10;99.90;;;;;;5063290;28;19913;-72
2023/05/28 00:33:46;;;;;;;;;;;15.00;99.90;;;;;;5061917;28;19989;-71
2023/05/28 00:36:12;;;;;;;;;;;15.00;99.90;;;;;;5064707;28;19943;-71
2023/05/28 00:38:38;;;;;;;;;;;15.00;99.90;;;;;;5061259;28;19913;-71
2023/05/28 00:41:03;;;;;;;;;;;15.00;99.90;;;;;;5059246;28;20360;-71
2023/05/28 00:43:29;;;;;;;;;;;14.90;99.90;;;;;;5063592;28;19924;-71
2023/05/28 00:45:56;;;;;;;;;;;14.90;99.90;;;;;;5061975;28;19966;-71
2023/05/28 00:48:23;;;;;;;;;;;14.90;99.90;;;;;;5062161;28;19924;-71
2023/05/28 00:50:48;;;;;;;;;;;14.90;99.90;;;;;;5062692;28;19948;-71
2023/05/28 00:53:14;;;;;;;;;;;14.90;99.90;;;;;;5063720;28;19951;-72
2023/05/28 00:55:40;;;;;;;;;;;14.80;99.90;;;;;;5062650;28;19920;-71
2023/05/28 00:58:07;;;;;;;;;;;14.80;99.90;;;;;;5060947;28;19920;-69
2023/05/28 01:00:33;;;;;;;;;;;14.80;99.90;;;;;;5062903;28;19982;-69
2023/05/28 01:02:59;;;;;;;;;;;14.80;99.90;;;;;;5061949;28;19919;-71
2023/05/28 01:05:24;;;;;;;;;;;14.70;99.90;;;;;;5042248;28;20442;-70
2023/05/28 01:07:50;;;;;;;;;;;14.70;99.90;;;;;;5061570;28;19912;-69
2023/05/28 01:10:16;;;;;;;;;;;14.70;99.90;;;;;;5062046;28;20865;-71
2023/05/28 01:12:42;;;;;;;;;;;14.70;99.90;;;;;;5061314;28;19917;-71
2023/05/28 01:15:08;;;;;;;;;;;14.60;99.90;;;;;;5061932;28;19966;-69
2023/05/28 01:17:34;;;;;;;;;;;14.60;99.90;;;;;;5062078;28;19931;-71
2023/05/28 01:20:10;;;;;;;;;;;14.60;99.90;;;;;;5064048;28;19925;-69
2023/05/28 01:22:38;;;;;;;;;;;14.60;99.90;;;;;;5062872;28;19917;-69
2023/05/28 01:25:09;;;;;;;;;;;14.60;99.90;;;;;;5066290;28;20521;-73
2023/05/28 01:27:39;;;;;;;;;;;14.70;99.90;;;;;;5062133;28;20026;-69
2023/05/28 01:30:07;;;;;;;;;;;14.60;99.90;;;;;;5060821;28;19912;-69
2023/05/28 01:32:32;;;;;;;;;;;14.60;99.90;;;;;;5062722;28;20296;-70
2023/05/28 01:34:59;;;;;;;;;;;14.60;99.90;;;;;;5068176;28;19957;-71
2023/05/28 01:37:25;;;;;;;;;;;14.60;99.90;;;;;;5061804;28;19936;-69
2023/05/28 01:39:51;;;;;;;;;;;14.60;99.90;;;;;;5061802;28;19923;-69
2023/05/28 01:42:17;;;;;;;;;;;14.60;99.90;;;;;;5060897;28;19912;-70
2023/05/28 01:44:43;;;;;;;;;;;14.60;99.90;;;;;;5060709;28;20542;-70
2023/05/28 01:47:10;;;;;;;;;;;14.60;99.90;;;;;;5060661;28;19921;-71
2023/05/28 01:49:36;;;;;;;;;;;14.50;99.90;;;;;;5061970;28;19923;-71
2023/05/28 01:52:03;;;;;;;;;;;14.50;99.90;;;;;;5060241;28;19916;-69
2023/05/28 01:54:28;;;;;;;;;;;14.50;99.90;;;;;;5076499;28;19974;-71
2023/05/28 01:56:54;;;;;;;;;;;14.50;99.90;;;;;;5061744;28;19920;-71
2023/05/28 01:59:20;;;;;;;;;;;14.40;99.90;;;;;;5043619;28;19913;-69
2023/05/28 02:01:45;;;;;;;;;;;14.50;99.90;;;;;;5062335;28;20504;-71
2023/05/28 02:04:11;;;;;;;;;;;14.40;99.90;;;;;;5061268;28;20009;-71
2023/05/28 02:06:36;;;;;;;;;;;14.40;99.90;;;;;;5061672;28;19917;-71
2023/05/28 02:09:02;;;;;;;;;;;14.40;99.90;;;;;;5057919;28;19999;-71
2023/05/28 02:11:28;;;;;;;;;;;14.40;99.90;;;;;;5061502;28;19920;-71
2023/05/28 02:13:54;;;;;;;;;;;14.40;99.90;;;;;;5074050;28;20264;-72
2023/05/28 02:16:20;;;;;;;;;;;14.40;99.90;;;;;;5075354;28;19920;-69
2023/05/28 02:18:47;;;;;;;;;;;14.30;99.90;;;;;;5057709;28;20413;-72
2023/05/28 02:21:13;;;;;;;;;;;14.30;99.90;;;;;;5058367;28;19920;-71
2023/05/28 02:23:41;;;;;;;;;;;14.30;99.90;;;;;;5060190;28;19921;-72
2023/05/28 02:26:06;;;;;;;;;;;14.30;99.90;;;;;;5060047;28;20611;-71
2023/05/28 02:28:32;;;;;;;;;;;14.30;99.90;;;;;;5059791;28;20924;-72
2023/05/28 02:30:58;;;;;;;;;;;14.20;99.90;;;;;;5064143;28;19924;-72
2023/05/28 02:33:23;;;;;;;;;;;14.20;99.90;;;;;;5060612;28;19917;-69
2023/05/28 02:35:49;;;;;;;;;;;14.20;99.90;;;;;;5060099;28;19955;-70
2023/05/28 02:38:15;;;;;;;;;;;14.20;99.90;;;;;;5073990;28;20416;-70
2023/05/28 02:40:41;;;;;;;;;;;14.20;99.90;;;;;;5061584;28;20384;-71
2023/05/28 02:43:06;;;;;;;;;;;14.10;99.90;;;;;;5066318;28;19912;-69
2023/05/28 02:45:32;;;;;;;;;;;14.10;99.90;;;;;;5059806;28;19913;-71
2023/05/28 02:47:57;;;;;;;;;;;14.00;99.90;;;;;;5061558;28;19919;-71
2023/05/28 02:50:23;;;;;;;;;;;14.00;99.90;;;;;;5074098;28;19912;-71
2023/05/28 02:52:49;;;;;;;;;;;14.00;99.90;;;;;;5058891;28;19963;-71
2023/05/28 02:55:14;;;;;;;;;;;14.00;99.90;;;;;;5062608;28;19920;-71
2023/05/28 02:57:40;;;;;;;;;;;13.90;99.90;;;;;;5078361;28;19921;-71
2023/05/28 03:00:09;;;;;;;;;;;13.90;99.90;;;;;;5087012;28;20330;-71
2023/05/28 03:02:35;;;;;;;;;;;13.90;99.90;;;;;;5061924;28;19936;-69
2023/05/28 03:05:02;;;;;;;;;;;13.90;99.90;;;;;;5062615;28;19912;-69
2023/05/28 03:07:28;;;;;;;;;;;13.80;99.90;;;;;;5059769;28;19966;-71
2023/05/28 03:09:54;;;;;;;;;;;13.80;99.90;;;;;;5059707;28;19916;-71
2023/05/28 03:12:20;;;;;;;;;;;13.80;99.90;;;;;;5060771;28;19919;-69
2023/05/28 03:14:45;;;;;;;;;;;13.80;99.90;;;;;;5060871;28;20340;-69
2023/05/28 03:17:11;;;;;;;;;;;13.80;99.90;;;;;;5060175;28;19924;-69
2023/05/28 03:19:36;;;;;;;;;;;13.80;99.90;;;;;;5060920;28;19916;-69
2023/05/28 03:22:02;;;;;;;;;;;13.70;99.90;;;;;;5063606;28;19916;-71
2023/05/28 03:24:28;;;;;;;;;;;13.70;99.90;;;;;;5062533;28;20024;-71
2023/05/28 03:26:53;;;;;;;;;;;13.70;99.90;;;;;;5060030;28;19912;-71
2023/05/28 03:29:19;;;;;;;;;;;13.70;99.90;;;;;;5060289;28;19928;-69
2023/05/28 03:31:46;;;;;;;;;;;13.70;99.90;;;;;;5064757;28;19916;-71
2023/05/28 03:34:12;;;;;;;;;;;13.60;99.90;;;;;;5080832;22;19980;-73
2023/05/28 03:36:40;;;;;;;;;;;13.60;99.90;;;;;;5064094;28;19969;-73
2023/05/28 03:39:07;;;;;;;;;;;13.60;99.90;;;;;;5064285;28;19912;-73
2023/05/28 03:41:32;;;;;;;;;;;13.60;99.90;;;;;;5068393;28;19920;-73
2023/05/28 03:43:58;;;;;;;;;;;13.60;99.90;;;;;;5069849;28;19909;-73
2023/05/28 03:46:24;;;;;;;;;;;13.60;99.90;;;;;;5063611;28;19913;-73
2023/05/28 03:48:50;;;;;;;;;;;13.60;99.90;;;;;;5065010;28;20471;-74
2023/05/28 03:51:16;;;;;;;;;;;13.50;99.90;;;;;;5064612;28;19917;-73
2023/05/28 03:53:41;;;;;;;;;;;13.60;99.90;;;;;;5053775;28;19920;-73
2023/05/28 03:56:07;;;;;;;;;;;13.60;99.90;;;;;;5046776;28;19947;-74
2023/05/28 03:58:33;;;;;;;;;;;13.50;99.90;;;;;;5063666;28;19909;-73
2023/05/28 04:00:59;;;;;;;;;;;13.50;99.90;;;;;;5065720;28;20438;-73
2023/05/28 04:03:25;;;;;;;;;;;13.50;99.90;;;;;;5064371;28;19996;-73
2023/05/28 04:05:51;;;;;;;;;;;13.50;99.90;;;;;;5061448;28;19999;-73
2023/05/28 04:08:17;;;;;;;;;;;13.50;99.90;;;;;;5064742;28;19979;-73
2023/05/28 04:10:43;;;;;;;;;;;13.50;99.90;;;;;;5063231;28;20398;-73
2023/05/28 04:13:08;;;;;;;;;;;13.50;99.90;;;;;;5073324;28;19913;-73
2023/05/28 04:15:34;;;;;;;;;;;13.50;99.90;;;;;;5064397;28;19963;-74
2023/05/28 04:18:00;;;;;;;;;;;13.50;99.90;;;;;;5064339;28;19951;-74
2023/05/28 04:20:25;;;;;;;;;;;13.50;99.90;;;;;;5064032;28;19913;-73
2023/05/28 04:22:51;;;;;;;;;;;13.50;99.90;;;;;;5067249;28;19924;-73
2023/05/28 04:25:18;;;;;;;;;;;13.50;99.90;;;;;;5064752;28;19935;-73
2023/05/28 04:27:44;;;;;;;;;;;13.50;99.90;;;;;;5063340;28;19916;-73
2023/05/28 04:30:11;;;;;;;;;;;13.50;99.90;;;;;;5064930;28;19952;-73
2023/05/28 04:32:38;;;;;;;;;;;13.50;99.90;;;;;;5066318;28;19916;-74
2023/05/28 04:35:05;;;;;;;;;;;13.50;99.90;;;;;;5066981;28;19924;-73
2023/05/28 04:37:33;;;;;;;;;;;13.50;99.90;;;;;;5063618;28;19913;-73
2023/05/28 04:39:58;;;;;;;;;;;13.60;99.90;;;;;;5063393;28;19970;-73
2023/05/28 04:42:24;;;;;;;;;;;13.60;99.90;;;;;;5060724;28;20307;-73
2023/05/28 04:44:53;;;;;;;;;;;13.60;99.90;;;;;;5064582;28;19913;-74
2023/05/28 04:47:19;;;;;;;;;;;13.60;99.90;;;;;;5064356;28;19919;-73
2023/05/28 04:49:45;;;;;;;;;;;13.60;99.90;;;;;;5067572;28;19920;-73
2023/05/28 04:52:11;;;;;;;;;;;13.70;99.90;;;;;;5066134;28;19960;-74
2023/05/28 04:54:36;;;;;;;;;;;13.70;99.90;;;;;;5063163;28;20324;-73
2023/05/28 04:57:02;;;;;;;;;;;13.70;99.90;;;;;;5063128;28;19927;-72
2023/05/28 04:59:28;;;;;;;;;;;13.70;99.90;;;;;;5066731;28;20376;-72
2023/05/28 05:01:53;;;;;;;;;;;13.80;99.90;;;;;;5059428;28;19917;-72
2023/05/28 05:04:19;;;;;;;;;;;13.80;99.90;;;;;;5058948;28;20298;-72
2023/05/28 05:06:44;;;;;;;;;;;13.80;99.90;;;;;;5043515;28;19970;-72
2023/05/28 05:09:10;;;;;;;;;;;13.90;99.90;;;;;;5041655;28;19927;-72
2023/05/28 05:11:37;;;;;;;;;;;13.90;99.90;;;;;;5061672;28;19916;-74
2023/05/28 05:14:03;;;;;;;;;;;14.00;99.90;;;;;;5064922;28;19951;-72
2023/05/28 05:16:29;;;;;;;;;;;14.10;99.90;;;;;;5060360;28;21555;-72
2023/05/28 05:18:54;;;;;;;;;;;14.10;99.90;;;;;;5041403;28;19925;-72
2023/05/28 05:21:21;;;;;;;;;;;14.20;99.90;;;;;;5059903;28;19917;-72
2023/05/28 05:23:46;;;;;;;;;;;14.30;99.90;;;;;;5063157;28;19969;-72
2023/05/28 05:26:12;;;;;;;;;;;14.60;99.90;;;;;;5043502;28;20612;-72
2023/05/28 05:28:38;;;;;;;;;;;14.60;99.90;;;;;;5062028;28;19917;-73
2023/05/28 05:31:06;;;;;;;;;;;14.70;99.90;;;;;;5060640;28;19921;-72
2023/05/28 05:33:31;;;;;;;;;;;14.70;99.90;;;;;;5059953;28;19971;-72
2023/05/28 05:35:58;;;;;;;;;;;14.80;99.90;;;;;;5065078;28;19921;-73
2023/05/28 05:38:24;;;;;;;;;;;14.80;99.90;;;;;;5065458;28;20035;-72
2023/05/28 05:40:50;;;;;;;;;;;14.80;99.90;;;;;;5062205;28;20008;-72
2023/05/28 05:43:15;;;;;;;;;;;14.80;99.90;;;;;;5058345;28;19924;-73
2023/05/28 05:45:41;;;;;;;;;;;14.80;99.90;;;;;;5062416;28;19921;-72
2023/05/28 05:48:07;;;;;;;;;;;14.80;99.90;;;;;;5061020;28;19974;-73
2023/05/28 05:50:32;;;;;;;;;;;14.90;99.90;;;;;;5063740;28;19956;-73
2023/05/28 05:53:01;;;;;;;;;;;14.90;99.90;;;;;;5060622;28;20387;-73
2023/05/28 05:55:26;;;;;;;;;;;14.90;99.90;;;;;;5059010;28;20292;-73
2023/05/28 05:57:52;;;;;;;;;;;14.90;99.90;;;;;;5061421;28;20017;-73
2023/05/28 06:00:17;;;;;;;;;;;14.90;99.90;;;;;;5060006;28;20273;-73
2023/05/28 06:02:43;;;;;;;;;;;14.90;99.90;;;;;;5060288;28;19924;-73
2023/05/28 06:05:12;;;;;;;;;;;14.90;99.90;;;;;;5062510;28;19916;-73
2023/05/28 06:07:38;;;;;;;;;;;14.90;99.90;;;;;;5058535;28;19959;-73
2023/05/28 06:10:04;;;;;;;;;;;15.00;99.90;;;;;;5060934;28;19917;-73
2023/05/28 06:12:30;;;;;;;;;;;14.90;99.90;;;;;;5060195;28;19960;-73
2023/05/28 06:14:56;;;;;;;;;;;14.90;99.90;;;;;;5059677;28;20011;-73
2023/05/28 06:17:22;;;;;;;;;;;15.00;99.90;;;;;;5064248;28;20456;-73
2023/05/28 06:19:49;;;;;;;;;;;15.00;99.90;;;;;;5061051;28;19913;-73
2023/05/28 06:22:15;;;;;;;;;;;15.00;99.90;;;;;;5059441;28;19917;-73
2023/05/28 06:24:41;;;;;;;;;;;15.10;99.90;;;;;;5060078;28;19920;-73
2023/05/28 06:27:06;;;;;;;;;;;15.10;99.90;;;;;;5062813;28;19923;-73
2023/05/28 06:29:32;;;;;;;;;;;15.20;99.90;;;;;;5059523;28;19966;-74
2023/05/28 06:31:57;;;;;;;;;;;15.30;99.90;;;;;;5059197;28;20396;-74
2023/05/28 06:34:23;;;;;;;;;;;15.30;99.90;;;;;;5058764;28;19924;-73
2023/05/28 06:36:48;;;;;;;;;;;15.30;99.90;;;;;;5059579;28;19913;-74
2023/05/28 06:39:14;;;;;;;;;;;15.40;99.90;;;;;;5059877;28;19913;-74
2023/05/28 06:41:40;;;;;;;;;;;15.50;99.90;;;;;;5059389;28;20364;-74
2023/05/28 06:44:06;;;;;;;;;;;15.60;99.90;;;;;;5042085;28;19958;-74
2023/05/28 06:46:32;;;;;;;;;;;15.60;99.90;;;;;;5042779;28;20564;-74
2023/05/28 06:48:58;;;;;;;;;;;15.60;99.90;;;;;;5064176;28;19916;-72
2023/05/28 06:51:23;;;;;;;;;;;15.60;99.90;;;;;;5059814;28;20050;-72
2023/05/28 06:53:49;;;;;;;;;;;15.60;99.90;;;;;;5061758;28;19916;-74
2023/05/28 06:56:15;;;;;;;;;;;15.80;99.90;;;;;;5058451;28;20300;-74
2023/05/28 06:58:40;;;;;;;;;;;15.90;99.90;;;;;;5058191;28;19923;-73
2023/05/28 07:01:06;;;;;;;;;;;16.00;99.90;;;;;;5056185;28;19939;-74
2023/05/28 07:03:32;;;;;;;;;;;16.10;99.90;;;;;;5055509;28;19946;-74
2023/05/28 07:05:57;;;;;;;;;;;16.20;99.90;;;;;;5052949;28;19916;-76
2023/05/28 07:08:23;;;;;;;;;;;16.20;99.90;;;;;;5060374;28;20062;-74
2023/05/28 07:10:48;;;;;;;;;;;16.20;99.90;;;;;;5057874;28;19913;-74
2023/05/28 07:13:17;;;;;;;;;;;16.30;99.90;;;;;;5058027;28;19935;-73
2023/05/28 07:15:42;;;;;;;;;;;16.40;99.90;;;;;;5058039;28;19921;-74
2023/05/28 07:18:08;;;;;;;;;;;16.30;99.90;;;;;;5057378;28;19913;-73
2023/05/28 07:20:33;;;;;;;;;;;16.30;99.90;;;;;;5056569;28;19921;-73
2023/05/28 07:22:59;;;;;;;;;;;16.30;99.90;;;;;;5057958;28;19917;-75
2023/05/28 07:25:25;;;;;;;;;;;16.30;99.90;;;;;;5058638;28;19959;-75
2023/05/28 07:27:50;;;;;;;;;;;16.30;99.90;;;;;;5060359;28;19991;-73
2023/05/28 07:30:16;;;;;;;;;;;16.40;99.90;;;;;;5057506;28;19916;-74
2023/05/28 07:32:42;;;;;;;;;;;16.40;99.90;;;;;;5057876;28;19960;-74
2023/05/28 07:35:08;;;;;;;;;;;16.40;99.90;;;;;;5058520;28;19955;-74
2023/05/28 07:37:33;;;;;;;;;;;16.40;99.90;;;;;;5058080;28;19917;-74
2023/05/28 07:39:59;;;;;;;;;;;16.50;99.90;;;;;;5045961;28;19960;-74
2023/05/28 07:42:25;;;;;;;;;;;16.40;99.90;;;;;;5058614;28;19920;-75
2023/05/28 07:44:50;;;;;;;;;;;16.30;99.90;;;;;;5056508;28;19971;-73
2023/05/28 07:47:16;;;;;;;;;;;16.40;99.90;;;;;;5060643;28;20011;-74
2023/05/28 07:49:42;;;;;;;;;;;16.40;99.90;;;;;;5054661;28;20380;-73
2023/05/28 07:52:07;;;;;;;;;;;16.40;99.90;;;;;;5059513;28;20110;-74
2023/05/28 07:54:33;;;;;;;;;;;16.30;99.90;;;;;;5056672;28;20775;-74
2023/05/28 07:57:00;;;;;;;;;;;16.30;99.90;;;;;;5060141;28;20279;-74
2023/05/28 07:59:26;;;;;;;;;;;16.40;99.90;;;;;;5045071;28;19932;-74
2023/05/28 08:01:52;;;;;;;;;;;16.40;99.90;;;;;;5058031;28;19999;-74
2023/05/28 08:04:18;;;;;;;;;;;16.50;99.90;;;;;;5057661;28;19959;-73
2023/05/28 08:06:44;;;;;;;;;;;16.50;99.90;;;;;;5062373;28;19960;-73
2023/05/28 08:09:09;;;;;;;;;;;16.50;99.90;;;;;;5055144;28;19957;-74
2023/05/28 08:11:35;;;;;;;;;;;16.60;99.90;;;;;;5054610;28;20466;-77
2023/05/28 08:14:00;;;;;;;;;;;16.60;99.90;;;;;;5057801;28;19924;-76
2023/05/28 08:16:26;;;;;;;;;;;16.70;99.90;;;;;;5040957;28;20002;-75
2023/05/28 08:18:52;;;;;;;;;;;16.70;99.90;;;;;;5057039;28;19912;-74
2023/05/28 08:21:17;;;;;;;;;;;16.80;99.90;;;;;;5057106;28;19920;-74
2023/05/28 08:23:45;;;;;;;;;;;16.90;99.90;;;;;;5058798;28;19912;-74
2023/05/28 08:26:11;;;;;;;;;;;16.90;99.90;;;;;;5060383;28;20382;-74
2023/05/28 08:28:36;;;;;;;;;;;16.90;99.90;;;;;;5061172;28;19920;-75
2023/05/28 08:31:02;;;;;;;;;;;16.90;99.90;;;;;;5059909;28;19920;-74
2023/05/28 08:33:28;;;;;;;;;;;17.00;99.90;;;;;;5057914;28;19916;-74
2023/05/28 08:35:53;;;;;;;;;;;17.10;99.90;;;;;;5058561;28;19920;-74
2023/05/28 08:38:19;;;;;;;;;;;17.20;99.90;;;;;;5056070;28;19921;-76
2023/05/28 08:40:49;;;;;;;;;;;17.20;99.90;;;;;;5060277;28;19908;-75
2023/05/28 08:43:14;;;;;;;;;;;17.20;99.90;;;;;;5065512;28;19963;-75
2023/05/28 08:45:40;;;;;;;;;;;17.30;99.90;;;;;;5062005;28;20367;-75
2023/05/28 08:48:06;;;;;;;;;;;17.30;99.90;;;;;;5040293;28;19920;-74
2023/05/28 08:50:35;;;;;;;;;;;17.30;99.90;;;;;;5064849;28;19920;-74
2023/05/28 08:53:01;;;;;;;;;;;17.40;99.90;;;;;;5067286;28;19913;-74
2023/05/28 08:55:27;;;;;;;;;;;17.40;99.90;;;;;;5057717;28;19916;-74
2023/05/28 08:57:53;;;;;;;;;;;17.50;99.90;;;;;;5060527;28;19959;-75
2023/05/28 09:00:21;;;;;;;;;;;17.50;99.90;;;;;;5059694;28;19915;-75
2023/05/28 09:02:47;;;;;;;;;;;17.60;99.90;;;;;;5062415;28;19959;-75
2023/05/28 09:05:12;;;;;;;;;;;17.60;99.90;;;;;;5058884;28;20501;-74
2023/05/28 09:07:38;;;;;;;;;;;17.70;99.90;;;;;;5061614;28;19916;-74
2023/05/28 09:10:03;;;;;;;;;;;17.70;99.90;;;;;;5060215;28;19956;-75
2023/05/28 09:12:29;;;;;;;;;;;17.70;99.90;;;;;;5061475;28;19970;-74
2023/05/28 09:14:55;;;;;;;;;;;17.80;99.90;;;;;;5061967;28;19917;-75
2023/05/28 09:17:33;;;;;;;;;;;17.80;99.90;;;;;;5060387;28;19913;-74
2023/05/28 09:19:59;;;;;;;;;;;17.90;99.90;;;;;;5061471;28;20273;-75
2023/05/28 09:22:26;;;;;;;;;;;17.90;99.90;;;;;;5069786;28;20011;-75
2023/05/28 09:24:54;;;;;;;;;;;18.00;99.90;;;;;;5061970;28;20014;-74
2023/05/28 09:27:21;;;;;;;;;;;18.10;99.90;;;;;;5061476;28;20005;-75
2023/05/28 09:29:47;;;;;;;;;;;18.10;99.90;;;;;;5056675;28;19912;-75
2023/05/28 09:32:17;;;;;;;;;;;18.20;99.90;;;;;;5059465;28;19916;-75
2023/05/28 09:34:42;;;;;;;;;;;18.20;99.90;;;;;;5079554;22;19979;-71
2023/05/28 09:37:08;;;;;;;;;;;18.30;99.90;;;;;;5064785;28;20322;-72
2023/05/28 09:39:34;;;;;;;;;;;18.30;99.90;;;;;;5056740;28;20505;-71
2023/05/28 09:42:03;;;;;;;;;;;18.30;99.90;;;;;;5063781;28;19916;-71
2023/05/28 09:44:30;;;;;;;;;;;18.40;99.90;;;;;;5064786;28;19921;-71
2023/05/28 09:46:56;;;;;;;;;;;18.40;99.90;;;;;;5059062;28;20007;-72
2023/05/28 09:49:22;;;;;;;;;;;18.50;99.70;;;;;;5048649;28;19919;-73
2023/05/28 09:51:51;;;;;;;;;;;18.50;99.40;;;;;;5055469;28;20359;-72
2023/05/28 09:54:17;;;;;;;;;;;18.60;98.60;;;;;;5055622;28;19917;-71
2023/05/28 09:56:45;;;;;;;;;;;18.60;98.90;;;;;;5056112;28;20165;-71
2023/05/28 09:59:11;;;;;;;;;;;18.70;98.50;;;;;;5054296;28;21448;-71
2023/05/28 10:01:41;;;;;;;;;;;18.80;98.10;;;;;;5062993;28;19913;-74
2023/05/28 10:04:13;;;;;;;;;;;18.80;98.40;;;;;;5056829;28;19951;-72
2023/05/28 10:06:40;;;;;;;;;;;18.90;97.80;;;;;;5068671;28;19913;-72
2023/05/28 10:09:06;;;;;;;;;;;18.90;97.80;;;;;;5061426;28;20592;-71
2023/05/28 10:11:39;;;;;;;;;;;19.00;97.70;;;;;;5056892;28;19950;-71
2023/05/28 10:14:05;;;;;;;;;;;19.10;98.50;;;;;;5056243;28;20331;-71
2023/05/28 10:16:31;;;;;;;;;;;19.20;97.70;;;;;;5055338;28;19917;-71
2023/05/28 10:18:57;;;;;;;;;;;19.20;97.00;;;;;;5057995;28;19923;-71
2023/05/28 10:21:23;;;;;;;;;;;19.20;97.30;;;;;;5059769;28;19913;-72
2023/05/28 10:23:49;;;;;;;;;;;19.10;97.50;;;;;;5060824;28;19913;-71
2023/05/28 10:26:15;;;;;;;;;;;19.20;97.80;;;;;;5056745;28;20383;-72
2023/05/28 10:28:42;;;;;;;;;;;19.30;98.10;;;;;;5057665;28;19920;-72
2023/05/28 10:31:09;;;;;;;;;;;19.40;97.30;;;;;;5052242;28;19928;-71
2023/05/28 10:33:42;;;;;;;;;;;19.50;97.20;;;;;;5056079;28;19916;-71
2023/05/28 10:36:12;;;;;;;;;;;19.70;97.40;;;;;;5059378;28;19920;-71
2023/05/28 10:38:43;;;;;;;;;;;19.90;95.90;;;;;;5058386;28;19959;-71
2023/05/28 10:41:10;;;;;;;;;;;19.90;96.00;;;;;;5051267;28;19920;-72
2023/05/28 10:43:38;;;;;;;;;;;20.00;96.00;;;;;;5056863;28;20370;-72
2023/05/28 10:46:08;;;;;;;;;;;20.10;94.80;;;;;;5053095;28;20431;-72
2023/05/28 10:48:37;;;;;;;;;;;20.10;94.60;;;;;;5074783;28;19917;-74
2023/05/28 10:51:04;;;;;;;;;;;20.20;94.40;;;;;;5054270;28;19912;-72
2023/05/28 10:53:29;;;;;;;;;;;20.20;94.30;;;;;;5056090;28;19927;-71
2023/05/28 10:55:55;;;;;;;;;;;20.10;94.80;;;;;;5057217;28;19925;-71
2023/05/28 10:58:25;;;;;;;;;;;20.00;95.10;;;;;;5058195;28;19958;-71
2023/05/28 11:00:51;;;;;;;;;;;20.00;95.40;;;;;;5060606;28;20380;-72
2023/05/28 11:03:16;;;;;;;;;;;20.00;95.40;;;;;;5056802;28;19982;-71
2023/05/28 11:05:42;;;;;;;;;;;20.10;95.60;;;;;;5057542;28;20462;-71
2023/05/28 11:08:08;;;;;;;;;;;20.10;94.90;;;;;;5058116;28;19957;-72
2023/05/28 11:10:34;;;;;;;;;;;20.30;94.30;;;;;;5052336;28;19921;-72
2023/05/28 11:13:00;;;;;;;;;;;20.40;92.80;;;;;;5056082;28;19940;-72
2023/05/28 11:15:25;;;;;;;;;;;20.60;93.60;;;;;;5056090;28;20414;-72
2023/05/28 11:17:51;;;;;;;;;;;20.70;93.00;;;;;;5056276;28;19921;-72
2023/05/28 11:20:21;;;;;;;;;;;21.00;92.00;;;;;;5054645;28;19920;-72
2023/05/28 11:22:47;;;;;;;;;;;21.20;90.80;;;;;;5052565;28;19913;-72
2023/05/28 11:25:13;;;;;;;;;;;21.70;90.20;;;;;;5057775;28;19916;-71
2023/05/28 11:27:40;;;;;;;;;;;22.50;88.40;;;;;;5055577;28;20191;-72
2023/05/28 11:30:09;;;;;;;;;;;23.60;85.20;;;;;;5056465;28;19921;-73
2023/05/28 11:32:35;;;;;;;;;;;24.20;80.00;;;;;;5048821;28;19913;-71
2023/05/28 11:35:01;;;;;;;;;;;23.90;78.40;;;;;;5057111;28;19923;-71
2023/05/28 11:37:32;;;;;;;;;;;23.40;77.90;;;;;;5053822;28;20445;-72
2023/05/28 11:39:59;;;;;;;;;;;23.00;79.20;;;;;;5055518;28;19913;-73
2023/05/28 11:42:25;;;;;;;;;;;24.20;78.60;;;;;;5054183;28;19920;-74
2023/05/28 11:44:51;;;;;;;;;;;26.10;74.70;;;;;;5070903;28;20367;-73
2023/05/28 11:47:17;;;;;;;;;;;26.60;68.60;;;;;;5054031;28;20384;-73
2023/05/28 11:49:44;;;;;;;;;;;25.80;66.90;;;;;;5076504;28;19971;-74
2023/05/28 11:52:10;;;;;;;;;;;25.00;67.50;;;;;;5055691;28;19913;-75
2023/05/28 11:54:36;;;;;;;;;;;24.70;68.60;;;;;;5055154;28;19923;-78
2023/05/28 11:57:06;;;;;;;;;;;25.30;67.70;;;;;;5056281;28;19920;-77
2023/05/28 11:59:31;;;;;;;;;;;25.90;66.70;;;;;;5059679;28;19913;-74
2023/05/28 12:02:10;;;;;;;;;;;26.80;63.50;;;;;;5059537;28;19913;-75
2023/05/28 12:04:36;;;;;;;;;;;27.60;62.60;;;;;;5060299;28;19912;-75
2023/05/28 12:07:01;;;;;;;;;;;28.30;59.90;;;;;;5043808;28;19962;-76
2023/05/28 12:09:27;;;;;;;;;;;28.10;58.00;;;;;;5056984;28;19916;-74
2023/05/28 12:12:11;;;;;;;;;;;28.80;56.50;;;;;;5071636;28;19924;-75
2023/05/28 12:14:37;;;;;;;;;;;29.10;55.00;;;;;;5058714;28;19924;-75
2023/05/28 12:17:03;;;;;;;;;;;29.30;52.20;;;;;;5055981;28;19924;-74
2023/05/28 12:19:31;;;;;;;;;;;29.10;51.40;;;;;;5060904;28;19929;-75
2023/05/28 12:21:57;;;;;;;;;;;28.70;52.20;;;;;;5060557;28;20294;-74
2023/05/28 12:24:25;;;;;;;;;;;27.90;53.90;;;;;;5055783;28;19920;-75
2023/05/28 12:26:51;;;;;;;;;;;27.60;54.80;;;;;;5059666;28;19917;-73
2023/05/28 12:29:16;;;;;;;;;;;27.80;54.50;;;;;;5053838;28;20243;-75
2023/05/28 12:31:42;;;;;;;;;;;28.40;52.90;;;;;;5054896;28;20454;-71
2023/05/28 12:34:08;;;;;;;;;;;29.40;51.70;;;;;;5059639;28;19913;-73
2023/05/28 12:36:34;;;;;;;;;;;30.20;48.80;;;;;;5058563;28;20017;-74
2023/05/28 12:39:00;;;;;;;;;;;30.80;47.30;;;;;;5056652;28;19952;-73
2023/05/28 12:41:26;;;;;;;;;;;30.60;47.30;;;;;;5057770;28;19920;-73
2023/05/28 12:43:51;;;;;;;;;;;30.80;47.80;;;;;;5060070;28;19923;-73
2023/05/28 12:46:17;;;;;;;;;;;30.70;46.90;;;;;;5055984;28;19921;-73
2023/05/28 12:48:42;;;;;;;;;;;30.20;47.60;;;;;;5056100;28;19962;-73
2023/05/28 12:51:08;;;;;;;;;;;30.10;47.50;;;;;;5057576;28;20289;-72
2023/05/28 12:53:33;;;;;;;;;;;30.60;46.20;;;;;;5058082;28;20011;-73
2023/05/28 12:55:59;;;;;;;;;;;31.40;45.50;;;;;;5059384;28;19920;-73
2023/05/28 12:58:25;;;;;;;;;;;31.20;45.10;;;;;;5057393;28;20333;-74
2023/05/28 13:00:52;;;;;;;;;;;31.60;42.40;;;;;;5057423;28;19921;-73
2023/05/28 13:03:19;;;;;;;;;;;32.00;42.80;;;;;;5039785;28;19962;-73
2023/05/28 13:05:46;;;;;;;;;;;32.00;41.60;;;;;;5052605;28;19928;-73
2023/05/28 13:08:11;;;;;;;;;;;32.20;42.40;;;;;;5056285;28;20490;-73
2023/05/28 13:10:37;;;;;;;;;;;32.30;40.80;;;;;;5058697;28;19916;-71
2023/05/28 13:13:02;;;;;;;;;;;32.90;41.40;;;;;;5056015;28;19921;-73
2023/05/28 13:15:28;;;;;;;;;;;32.60;40.40;;;;;;5057279;28;19923;-73
2023/05/28 13:17:53;;;;;;;;;;;32.80;40.00;;;;;;5057499;28;20341;-73
2023/05/28 13:20:19;;;;;;;;;;;33.50;39.00;;;;;;5055171;28;19952;-73
2023/05/28 13:22:45;;;;;;;;;;;34.60;38.00;;;;;;5044052;28;19954;-73
2023/05/28 13:25:11;;;;;;;;;;;33.90;39.20;;;;;;5053200;28;19916;-73
2023/05/28 13:27:36;;;;;;;;;;;34.10;38.60;;;;;;5058469;28;19913;-73
2023/05/28 13:30:02;;;;;;;;;;;34.80;37.40;;;;;;5059019;28;19924;-72
2023/05/28 13:32:28;;;;;;;;;;;34.50;37.20;;;;;;5059625;28;19916;-73
2023/05/28 13:34:54;;;;;;;;;;;35.30;36.30;;;;;;5056985;28;20113;-73
2023/05/28 13:37:19;;;;;;;;;;;34.90;37.40;;;;;;5060594;28;19916;-74
2023/05/28 13:39:46;;;;;;;;;;;34.90;37.00;;;;;;5059767;28;19994;-73
2023/05/28 13:42:12;;;;;;;;;;;34.70;36.10;;;;;;5059796;28;19916;-73
2023/05/28 13:44:38;;;;;;;;;;;35.00;36.10;;;;;;5042864;28;20303;-73
2023/05/28 13:47:03;;;;;;;;;;;34.60;36.20;;;;;;5044058;28;19962;-73
2023/05/28 13:49:29;;;;;;;;;;;34.20;36.40;;;;;;5059694;28;19912;-73
2023/05/28 13:51:55;;;;;;;;;;;33.30;36.70;;;;;;5059233;28;19909;-73
2023/05/28 13:54:21;;;;;;;;;;;32.10;38.20;;;;;;5041265;28;19917;-73
2023/05/28 13:56:46;;;;;;;;;;;30.40;39.50;;;;;;5060242;28;19952;-73
2023/05/28 13:59:12;;;;;;;;;;;30.20;38.80;;;;;;5059562;28;19915;-73
2023/05/28 14:01:37;;;;;;;;;;;30.00;40.40;;;;;;5062360;28;19975;-73
2023/05/28 14:04:03;;;;;;;;;;;31.60;38.70;;;;;;5056972;28;19924;-72
2023/05/28 14:06:29;;;;;;;;;;;32.10;38.20;;;;;;5060189;28;19981;-73
2023/05/28 14:08:55;;;;;;;;;;;32.90;37.30;;;;;;5060242;28;19920;-72
2023/05/28 14:11:20;;;;;;;;;;;33.70;36.10;;;;;;5059772;28;20102;-72